Industrial Hillside, New Jersey
Current Conditions -  °F | °C
As of 12:51 PM on Thursday 29 Jan 2015 (Local Time) from KEWR Reporting Station
Broken Clouds Broken Clouds  
Wind Chill: 29°   Ceiling: 25000
Heat Index: 29°   Visibility: 10mi
Dew Point:   Wind: 0mph
Humidity: 41%   Direction: NA
Pressure: 30.23"   Gusts: NA
Location:  40.6961°N, 74.2294°W
Report Text: KEWR 291751Z 00000KT 10SM FEW160 BKN250 M02/M13 A3023 RMK AO2 SLP237 933005 4/006 T10171133 11011 21089 58030
Loading
Personal Weather Stations






























Interactive Weather Map New forecast layout! Learn more

10-Day Weather Forecast

Advertisements
Track Severe Weather on mobile